Time;durP1;ratioP1;P1;durP2;ratioP2;P2;SDS_P1;SDS_P2;PMS_P1;PMS_P2;Temp;Humidity;BMP_temperature;BMP_pressure;BME280_temperature;BME280_humidity;BME280_pressure;Samples;Min_cycle;Max_cycle;Signal;HPM_P1;HPM_P2
2024/01/31 00:00:15;;;;;;;6.45;1.50;;;;;;;;;;5035546;28;20422;-42
2024/01/31 00:02:43;;;;;;;3.80;1.20;;;;;;;;;;5012492;28;20529;-40
2024/01/31 00:05:14;;;;;;;5.57;1.35;;;;;;;;;;5037884;28;20040;-42
2024/01/31 00:07:43;;;;;;;5.10;1.20;;;;;;;;;;5011792;28;20041;-40
2024/01/31 00:10:11;;;;;;;4.95;1.77;;;;;;;;;;5023226;28;20045;-42
2024/01/31 00:12:39;;;;;;;5.78;1.52;;;;;;;;;;5011842;28;20067;-42
2024/01/31 00:15:07;;;;;;;5.83;1.23;;;;;;;;;;5026169;28;20040;-42
2024/01/31 00:17:35;;;;;;;4.28;1.52;;;;;;;;;;5024334;28;20126;-41
2024/01/31 00:20:03;;;;;;;4.80;1.13;;;;;;;;;;5025376;28;20334;-41
2024/01/31 00:22:32;;;;;;;4.53;1.23;;;;;;;;;;5043803;28;20535;-41
2024/01/31 00:25:01;;;;;;;4.65;1.30;;;;;;;;;;5028523;28;20044;-42
2024/01/31 00:27:29;;;;;;;6.20;1.20;;;;;;;;;;4927978;28;20054;-42
2024/01/31 00:30:06;;;;;;;4.85;1.40;;;;;;;;;;4934391;28;20155;-43
2024/01/31 00:32:35;;;;;;;4.57;1.52;;;;;;;;;;5025249;28;20055;-42
2024/01/31 00:35:06;;;;;;;5.57;1.83;;;;;;;;;;5022578;28;20044;-42
2024/01/31 00:37:35;;;;;;;5.93;1.67;;;;;;;;;;5033014;28;20499;-42
2024/01/31 00:40:05;;;;;;;4.70;1.67;;;;;;;;;;5016219;28;20036;-41
2024/01/31 00:42:33;;;;;;;4.97;1.58;;;;;;;;;;5020266;28;20047;-44
2024/01/31 00:45:01;;;;;;;5.20;1.60;;;;;;;;;;5023134;28;20044;-42
2024/01/31 00:47:29;;;;;;;5.75;1.70;;;;;;;;;;5040175;28;20127;-42
2024/01/31 00:49:57;;;;;;;5.05;1.70;;;;;;;;;;5032336;28;20052;-44
2024/01/31 00:52:24;;;;;;;5.23;1.80;;;;;;;;;;5065403;28;20045;-43
2024/01/31 00:54:53;;;;;;;5.68;1.85;;;;;;;;;;5014332;28;21128;-42
2024/01/31 00:57:21;;;;;;;5.65;2.05;;;;;;;;;;5026931;28;20494;-42
2024/01/31 00:59:49;;;;;;;6.80;1.73;;;;;;;;;;5015798;28;20543;-42
2024/01/31 01:02:17;;;;;;;6.30;1.77;;;;;;;;;;5040622;28;20137;-43
2024/01/31 01:04:45;;;;;;;6.63;2.20;;;;;;;;;;4997991;28;20056;-41
2024/01/31 01:07:13;;;;;;;5.43;1.90;;;;;;;;;;5028434;28;20047;-42
2024/01/31 01:09:41;;;;;;;5.35;2.08;;;;;;;;;;5017803;28;20481;-42
2024/01/31 01:12:10;;;;;;;5.85;2.13;;;;;;;;;;5029454;28;20037;-43
2024/01/31 01:14:37;;;;;;;5.43;2.05;;;;;;;;;;5042053;28;20048;-45
2024/01/31 01:17:05;;;;;;;5.77;1.73;;;;;;;;;;5042332;28;20502;-42
2024/01/31 01:19:33;;;;;;;6.07;2.00;;;;;;;;;;5036460;28;20070;-41
2024/01/31 01:22:01;;;;;;;6.07;2.33;;;;;;;;;;5032638;28;20037;-42
2024/01/31 01:24:30;;;;;;;7.25;1.90;;;;;;;;;;5035708;28;20517;-43
2024/01/31 01:26:58;;;;;;;6.88;2.50;;;;;;;;;;4939539;28;20701;-42
2024/01/31 01:29:28;;;;;;;6.80;2.23;;;;;;;;;;4924150;28;20052;-42
2024/01/31 01:31:56;;;;;;;6.78;2.15;;;;;;;;;;5036528;28;20032;-41
2024/01/31 01:34:23;;;;;;;8.15;2.60;;;;;;;;;;5031458;28;20599;-41
2024/01/31 01:36:51;;;;;;;7.03;2.83;;;;;;;;;;5034103;28;20257;-42
2024/01/31 01:39:19;;;;;;;7.82;2.75;;;;;;;;;;5034711;28;20098;-42
2024/01/31 01:41:48;;;;;;;7.83;2.70;;;;;;;;;;5031225;28;20067;-41
2024/01/31 01:44:16;;;;;;;6.07;2.58;;;;;;;;;;5036378;28;20056;-44
2024/01/31 01:46:46;;;;;;;6.82;2.40;;;;;;;;;;5018420;28;20842;-42
2024/01/31 01:49:14;;;;;;;8.05;2.85;;;;;;;;;;5055497;28;20048;-41
2024/01/31 01:51:44;;;;;;;6.40;2.53;;;;;;;;;;5031726;28;20437;-42
2024/01/31 01:54:13;;;;;;;8.80;3.00;;;;;;;;;;5033494;28;20118;-41
2024/01/31 01:56:42;;;;;;;8.43;2.58;;;;;;;;;;5026653;28;20132;-41
2024/01/31 01:59:10;;;;;;;8.52;2.83;;;;;;;;;;5043236;28;20048;-41
2024/01/31 02:01:38;;;;;;;7.43;2.78;;;;;;;;;;5017335;28;20045;-41
2024/01/31 02:04:08;;;;;;;7.93;2.60;;;;;;;;;;5045540;28;20159;-41
2024/01/31 02:06:37;;;;;;;7.97;3.20;;;;;;;;;;5037785;28;20029;-41
2024/01/31 02:09:05;;;;;;;7.25;2.75;;;;;;;;;;5040939;28;20697;-43
2024/01/31 02:11:36;;;;;;;6.50;2.90;;;;;;;;;;5037374;28;20047;-43
2024/01/31 02:14:21;;;;;;;8.25;3.50;;;;;;;;;;5046371;28;20052;-42
2024/01/31 02:16:49;;;;;;;6.93;2.75;;;;;;;;;;5024829;28;20598;-41
2024/01/31 02:19:18;;;;;;;9.57;3.20;;;;;;;;;;5052961;28;20509;-43
2024/01/31 02:21:46;;;;;;;7.40;2.97;;;;;;;;;;5034728;28;20083;-41
2024/01/31 02:24:16;;;;;;;9.93;3.65;;;;;;;;;;5042714;28;20549;-41
2024/01/31 02:26:47;;;;;;;7.70;2.83;;;;;;;;;;4919183;28;20041;-42
2024/01/31 02:29:15;;;;;;;7.30;2.75;;;;;;;;;;4978486;28;20044;-41
2024/01/31 02:31:43;;;;;;;7.90;3.17;;;;;;;;;;5067990;28;20052;-43
2024/01/31 02:34:11;;;;;;;10.88;3.17;;;;;;;;;;5028573;28;20048;-42
2024/01/31 02:36:39;;;;;;;7.05;2.90;;;;;;;;;;5030294;28;20040;-42
2024/01/31 02:39:07;;;;;;;8.93;3.00;;;;;;;;;;5042723;28;20035;-41
2024/01/31 02:41:36;;;;;;;8.43;3.25;;;;;;;;;;5028593;28;20047;-41
2024/01/31 02:44:04;;;;;;;7.30;3.20;;;;;;;;;;5040300;28;20072;-42
2024/01/31 02:46:31;;;;;;;7.78;3.25;;;;;;;;;;5022741;28;20043;-43
2024/01/31 02:49:00;;;;;;;9.32;3.75;;;;;;;;;;5043635;28;20123;-42
2024/01/31 02:51:28;;;;;;;8.32;3.53;;;;;;;;;;5029593;28;20048;-41
2024/01/31 02:53:56;;;;;;;8.95;3.47;;;;;;;;;;5038424;28;20047;-41
2024/01/31 02:56:23;;;;;;;7.73;2.80;;;;;;;;;;5027136;28;20044;-40
2024/01/31 02:58:52;;;;;;;9.95;2.63;;;;;;;;;;5036893;28;20044;-41
2024/01/31 03:01:20;;;;;;;7.00;2.60;;;;;;;;;;5016426;28;20047;-41
2024/01/31 03:03:48;;;;;;;7.78;2.60;;;;;;;;;;5032999;28;20071;-41
2024/01/31 03:06:16;;;;;;;10.93;3.00;;;;;;;;;;5039318;28;20040;-41
2024/01/31 03:08:43;;;;;;;8.53;3.13;;;;;;;;;;5033062;28;20486;-41
2024/01/31 03:11:11;;;;;;;7.20;2.65;;;;;;;;;;5025945;28;20048;-41
2024/01/31 03:13:39;;;;;;;9.95;2.40;;;;;;;;;;5048513;28;20032;-41
2024/01/31 03:16:08;;;;;;;9.90;2.30;;;;;;;;;;5021809;28;20064;-41
2024/01/31 03:18:36;;;;;;;9.05;2.53;;;;;;;;;;5038871;28;20046;-41
2024/01/31 03:21:04;;;;;;;7.73;1.90;;;;;;;;;;5067241;28;20106;-40
2024/01/31 03:23:32;;;;;;;8.63;2.40;;;;;;;;;;5039069;28;20351;-41
2024/01/31 03:26:00;;;;;;;7.30;2.17;;;;;;;;;;5034579;28;20051;-41
2024/01/31 03:28:28;;;;;;;6.75;2.20;;;;;;;;;;4845409;28;20048;-41
2024/01/31 03:30:55;;;;;;;7.28;1.95;;;;;;;;;;5041870;28;20122;-41
2024/01/31 03:33:25;;;;;;;7.63;1.97;;;;;;;;;;5040649;28;20135;-40
2024/01/31 03:35:52;;;;;;;8.95;2.03;;;;;;;;;;5036271;28;20040;-41
2024/01/31 03:38:20;;;;;;;8.73;2.17;;;;;;;;;;5023453;28;20345;-41
2024/01/31 03:40:48;;;;;;;8.65;2.17;;;;;;;;;;5030640;28;20811;-41
2024/01/31 03:43:16;;;;;;;8.00;1.88;;;;;;;;;;5046621;28;20115;-42
2024/01/31 03:45:44;;;;;;;6.33;1.93;;;;;;;;;;5031453;28;20064;-43
2024/01/31 03:48:12;;;;;;;8.15;1.85;;;;;;;;;;5025934;28;20051;-41
2024/01/31 03:50:41;;;;;;;6.78;1.80;;;;;;;;;;5037580;28;20746;-41
2024/01/31 03:53:09;;;;;;;5.45;1.90;;;;;;;;;;5046326;28;20475;-41
2024/01/31 03:55:37;;;;;;;6.75;1.88;;;;;;;;;;5034425;28;20041;-41
2024/01/31 03:58:05;;;;;;;8.63;2.10;;;;;;;;;;5040753;28;20040;-43
2024/01/31 04:00:32;;;;;;;7.10;2.00;;;;;;;;;;5018372;28;20044;-41
2024/01/31 04:03:00;;;;;;;7.88;1.75;;;;;;;;;;5041178;28;20860;-41
2024/01/31 04:05:28;;;;;;;11.38;2.35;;;;;;;;;;5033073;28;20049;-41
2024/01/31 04:07:57;;;;;;;7.43;1.70;;;;;;;;;;5036875;28;20387;-41
2024/01/31 04:10:26;;;;;;;7.40;1.73;;;;;;;;;;5037122;28;20935;-41
2024/01/31 04:12:54;;;;;;;6.70;1.95;;;;;;;;;;5029973;28;20041;-41
2024/01/31 04:15:22;;;;;;;7.53;1.50;;;;;;;;;;4979345;28;20756;-41
2024/01/31 04:17:50;;;;;;;8.43;2.03;;;;;;;;;;5027744;28;20056;-41
2024/01/31 04:20:19;;;;;;;8.40;1.95;;;;;;;;;;5004379;28;20047;-41
2024/01/31 04:22:47;;;;;;;10.57;1.90;;;;;;;;;;5039205;28;20040;-41
2024/01/31 04:25:17;;;;;;;7.32;1.83;;;;;;;;;;5071763;28;20053;-48
2024/01/31 04:27:50;;;;;;;7.00;2.13;;;;;;;;;;4945362;28;20037;-41
2024/01/31 04:30:22;;;;;;;6.53;2.00;;;;;;;;;;5032870;28;20055;-42
2024/01/31 04:32:54;;;;;;;6.18;1.77;;;;;;;;;;5036450;28;20323;-43
2024/01/31 04:35:23;;;;;;;8.13;1.73;;;;;;;;;;5027138;28;20063;-42
2024/01/31 04:37:51;;;;;;;8.00;1.85;;;;;;;;;;5039379;28;20040;-44
2024/01/31 04:40:20;;;;;;;10.23;2.40;;;;;;;;;;5035868;28;20247;-42
2024/01/31 04:42:47;;;;;;;6.68;1.90;;;;;;;;;;5034362;28;20055;-41
2024/01/31 04:45:18;;;;;;;10.85;2.08;;;;;;;;;;5035786;28;20040;-41
2024/01/31 04:47:45;;;;;;;6.93;1.93;;;;;;;;;;5017540;28;20414;-41
2024/01/31 04:50:13;;;;;;;7.38;2.40;;;;;;;;;;5019308;28;20048;-41
2024/01/31 04:52:41;;;;;;;9.23;1.92;;;;;;;;;;5028210;28;20533;-41
2024/01/31 04:55:09;;;;;;;5.72;2.15;;;;;;;;;;5019878;28;20040;-41
2024/01/31 04:57:39;;;;;;;7.07;2.00;;;;;;;;;;5014882;28;20040;-41
2024/01/31 05:00:08;;;;;;;7.03;1.90;;;;;;;;;;5009752;28;20041;-41
2024/01/31 05:02:36;;;;;;;9.20;2.30;;;;;;;;;;5023948;28;20052;-43
2024/01/31 05:05:04;;;;;;;8.10;1.98;;;;;;;;;;5021992;28;20051;-42
2024/01/31 05:07:33;;;;;;;6.15;2.00;;;;;;;;;;5014460;28;20573;-44
2024/01/31 05:10:01;;;;;;;7.85;2.08;;;;;;;;;;5016980;28;20655;-41
2024/01/31 05:12:29;;;;;;;7.90;2.00;;;;;;;;;;5026570;28;21144;-41
2024/01/31 05:14:58;;;;;;;7.28;2.03;;;;;;;;;;5035886;28;20041;-41
2024/01/31 05:17:26;;;;;;;9.38;2.30;;;;;;;;;;5030430;28;20086;-41
2024/01/31 05:19:54;;;;;;;8.18;2.10;;;;;;;;;;5017921;28;20044;-42
2024/01/31 05:22:22;;;;;;;8.40;2.10;;;;;;;;;;5025659;28;20129;-41
2024/01/31 05:24:50;;;;;;;6.40;2.10;;;;;;;;;;5020516;28;20047;-41
2024/01/31 05:27:18;;;;;;;7.38;2.28;;;;;;;;;;4925014;28;20933;-41
2024/01/31 05:29:46;;;;;;;10.05;2.35;;;;;;;;;;4929367;28;20045;-42
2024/01/31 05:32:16;;;;;;;7.95;2.22;;;;;;;;;;5028493;28;20051;-41
2024/01/31 05:34:44;;;;;;;7.25;1.80;;;;;;;;;;5021020;28;20037;-43
2024/01/31 05:37:12;;;;;;;7.70;2.27;;;;;;;;;;5022712;28;20465;-48
2024/01/31 05:39:40;;;;;;;6.68;2.20;;;;;;;;;;5017327;28;20040;-42
2024/01/31 05:42:08;;;;;;;9.60;2.30;;;;;;;;;;5042586;28;20044;-41
2024/01/31 05:44:35;;;;;;;7.63;2.72;;;;;;;;;;5018291;28;20102;-41
2024/01/31 05:47:03;;;;;;;11.50;2.85;;;;;;;;;;5046937;28;20045;-43
2024/01/31 05:49:33;;;;;;;8.43;2.33;;;;;;;;;;5016820;28;20947;-44
2024/01/31 05:52:01;;;;;;;11.23;2.53;;;;;;;;;;5030551;28;20037;-41
2024/01/31 05:54:29;;;;;;;10.73;2.45;;;;;;;;;;5023244;28;20123;-41
2024/01/31 05:56:56;;;;;;;8.23;2.28;;;;;;;;;;5018330;28;20037;-42
2024/01/31 05:59:25;;;;;;;9.35;2.35;;;;;;;;;;5010517;28;20512;-41
2024/01/31 06:01:53;;;;;;;7.80;2.60;;;;;;;;;;5019513;28;20040;-43
2024/01/31 06:04:21;;;;;;;4.88;1.88;;;;;;;;;;5025057;28;20742;-41
2024/01/31 06:06:50;;;;;;;8.57;2.25;;;;;;;;;;5029233;28;20044;-43
2024/01/31 06:09:19;;;;;;;8.48;2.08;;;;;;;;;;5010914;28;20717;-41
2024/01/31 06:11:47;;;;;;;8.68;2.80;;;;;;;;;;5048121;28;20049;-42
2024/01/31 06:14:15;;;;;;;6.77;1.63;;;;;;;;;;5018452;28;20052;-42
2024/01/31 06:16:43;;;;;;;8.77;2.35;;;;;;;;;;5040851;28;20041;-41
2024/01/31 06:19:11;;;;;;;8.90;1.90;;;;;;;;;;5018958;28;20052;-42
2024/01/31 06:21:39;;;;;;;6.85;2.20;;;;;;;;;;5041659;28;20032;-42
2024/01/31 06:24:08;;;;;;;6.35;1.95;;;;;;;;;;5022734;28;20049;-42
2024/01/31 06:26:47;;;;;;;7.00;1.93;;;;;;;;;;4993208;28;20532;-42
2024/01/31 06:29:18;;;;;;;6.03;1.73;;;;;;;;;;4913008;28;20051;-43
2024/01/31 06:31:47;;;;;;;7.00;2.00;;;;;;;;;;5036278;28;20040;-41
2024/01/31 06:34:16;;;;;;;12.20;2.28;;;;;;;;;;5017732;28;20044;-42
2024/01/31 06:36:45;;;;;;;6.72;1.75;;;;;;;;;;5042294;28;20040;-41
2024/01/31 06:39:14;;;;;;;8.10;2.17;;;;;;;;;;5027978;28;20616;-42
2024/01/31 06:41:43;;;;;;;5.45;1.65;;;;;;;;;;5037485;28;20072;-42
2024/01/31 06:44:11;;;;;;;8.73;1.65;;;;;;;;;;5039867;28;20053;-41
2024/01/31 06:46:40;;;;;;;6.28;1.80;;;;;;;;;;5023279;28;20052;-41
2024/01/31 06:49:08;;;;;;;9.38;2.33;;;;;;;;;;5042414;28;20040;-41
2024/01/31 06:51:36;;;;;;;7.50;2.03;;;;;;;;;;5021734;28;20037;-41
2024/01/31 06:54:04;;;;;;;10.18;2.20;;;;;;;;;;5042576;28;20059;-41
2024/01/31 06:56:33;;;;;;;10.07;2.70;;;;;;;;;;5026328;28;20048;-41
2024/01/31 06:59:03;;;;;;;8.75;2.42;;;;;;;;;;5034383;28;20036;-41
2024/01/31 07:01:31;;;;;;;8.55;2.42;;;;;;;;;;5023311;28;20055;-41
2024/01/31 07:03:59;;;;;;;9.03;2.73;;;;;;;;;;5031742;28;20045;-42
2024/01/31 07:06:28;;;;;;;9.48;2.28;;;;;;;;;;5031659;28;20135;-41
2024/01/31 07:08:56;;;;;;;8.38;2.45;;;;;;;;;;5029904;28;20072;-41
2024/01/31 07:11:24;;;;;;;7.50;2.35;;;;;;;;;;5043886;28;20040;-41
2024/01/31 07:13:53;;;;;;;9.20;2.35;;;;;;;;;;5020698;28;20078;-41
2024/01/31 07:16:21;;;;;;;7.63;2.30;;;;;;;;;;5039077;28;20748;-41
2024/01/31 07:18:48;;;;;;;8.23;2.53;;;;;;;;;;5017470;28;20699;-41
2024/01/31 07:21:24;;;;;;;12.35;2.85;;;;;;;;;;5040518;28;20047;-43
2024/01/31 07:23:51;;;;;;;8.98;2.95;;;;;;;;;;5033791;28;20209;-41
2024/01/31 07:26:23;;;;;;;9.05;2.17;;;;;;;;;;5033385;28;20041;-43
2024/01/31 07:28:51;;;;;;;6.03;2.20;;;;;;;;;;4863793;28;20587;-41
2024/01/31 07:31:20;;;;;;;10.55;2.97;;;;;;;;;;5029803;28;20043;-41
2024/01/31 07:33:48;;;;;;;7.97;2.38;;;;;;;;;;5027365;28;20514;-41
2024/01/31 07:36:16;;;;;;;7.47;2.50;;;;;;;;;;5014139;28;20060;-41
2024/01/31 07:38:44;;;;;;;9.55;2.63;;;;;;;;;;5030274;28;20189;-42
2024/01/31 07:41:12;;;;;;;9.17;2.23;;;;;;;;;;5025317;28;20045;-41
2024/01/31 07:43:39;;;;;;;8.43;2.22;;;;;;;;;;5034491;28;20055;-41
2024/01/31 07:46:11;;;;;;;8.55;2.22;;;;;;;;;;5026662;28;20505;-42
2024/01/31 07:48:41;;;;;;;8.02;2.42;;;;;;;;;;5040474;28;20032;-41
2024/01/31 07:51:08;;;;;;;9.30;2.42;;;;;;;;;;5022266;28;20044;-41
2024/01/31 07:53:37;;;;;;;12.13;2.37;;;;;;;;;;5033516;28;20455;-42
2024/01/31 07:56:05;;;;;;;9.55;2.58;;;;;;;;;;5018145;28;20036;-42
2024/01/31 07:58:33;;;;;;;9.20;2.35;;;;;;;;;;5033048;28;20082;-42
2024/01/31 08:01:02;;;;;;;7.82;2.35;;;;;;;;;;5020555;28;20106;-41
2024/01/31 08:03:30;;;;;;;11.00;2.17;;;;;;;;;;5023885;28;24430;-44
2024/01/31 08:06:00;;;;;;;10.33;2.60;;;;;;;;;;5017129;28;20930;-42
2024/01/31 08:08:28;;;;;;;11.18;2.67;;;;;;;;;;5040857;28;20048;-42
2024/01/31 08:10:57;;;;;;;15.23;2.25;;;;;;;;;;5026253;28;20083;-43
2024/01/31 08:13:25;;;;;;;10.82;1.80;;;;;;;;;;5033149;28;20047;-43
2024/01/31 08:15:53;;;;;;;8.57;2.40;;;;;;;;;;5033426;28;20044;-42
2024/01/31 08:18:21;;;;;;;8.47;1.93;;;;;;;;;;5029522;28;20048;-43
2024/01/31 08:20:49;;;;;;;6.00;1.65;;;;;;;;;;5021225;28;20040;-43
2024/01/31 08:23:18;;;;;;;6.25;1.90;;;;;;;;;;5032216;28;20414;-42
2024/01/31 08:25:46;;;;;;;7.07;1.40;;;;;;;;;;5022779;28;20098;-44
2024/01/31 08:28:14;;;;;;;11.50;2.00;;;;;;;;;;4834186;28;20552;-42
2024/01/31 08:30:42;;;;;;;11.67;2.20;;;;;;;;;;5032957;28;20578;-42
2024/01/31 08:33:10;;;;;;;8.65;1.73;;;;;;;;;;5036173;28;20502;-43
2024/01/31 08:35:38;;;;;;;7.53;1.60;;;;;;;;;;5023502;28;20090;-42
2024/01/31 08:38:05;;;;;;;5.30;1.63;;;;;;;;;;4331506;28;10000133;-43
2024/01/31 08:40:34;;;;;;;7.78;2.45;;;;;;;;;;5026328;28;20383;-41
2024/01/31 08:43:02;;;;;;;7.53;1.70;;;;;;;;;;5020345;28;20036;-42
2024/01/31 08:45:30;;;;;;;5.77;1.73;;;;;;;;;;5023121;28;20044;-42
2024/01/31 08:47:58;;;;;;;9.23;1.73;;;;;;;;;;5022447;28;20051;-42
2024/01/31 08:50:26;;;;;;;10.27;1.80;;;;;;;;;;5025503;28;20060;-43
2024/01/31 08:52:56;;;;;;;7.15;1.23;;;;;;;;;;5028198;28;20056;-41
2024/01/31 08:55:25;;;;;;;7.22;1.10;;;;;;;;;;5024882;28;20048;-41
2024/01/31 08:57:54;;;;;;;7.23;1.10;;;;;;;;;;5016099;28;20507;-42
2024/01/31 09:00:21;;;;;;;8.52;1.10;;;;;;;;;;5017876;28;20056;-41
2024/01/31 09:02:49;;;;;;;13.35;1.38;;;;;;;;;;5048499;28;20435;-43
2024/01/31 09:05:18;;;;;;;8.20;1.10;;;;;;;;;;4677433;28;9999845;-41
2024/01/31 09:07:46;;;;;;;5.75;0.65;;;;;;;;;;5005047;28;20950;-42
2024/01/31 09:10:32;;;;;;;10.67;1.20;;;;;;;;;;5012285;28;20378;-43
2024/01/31 09:13:01;;;;;;;7.88;0.80;;;;;;;;;;5017041;28;20044;-41
2024/01/31 09:15:29;;;;;;;4.05;0.75;;;;;;;;;;5039713;28;20414;-41
2024/01/31 09:17:57;;;;;;;6.70;1.15;;;;;;;;;;5024420;28;20055;-41
2024/01/31 09:20:25;;;;;;;5.47;1.10;;;;;;;;;;5011209;28;20426;-42
2024/01/31 09:23:10;;;;;;;8.30;1.00;;;;;;;;;;5011609;28;20068;-41
2024/01/31 09:25:38;;;;;;;7.07;0.80;;;;;;;;;;5005496;28;20173;-41
2024/01/31 09:28:08;;;;;;;9.60;1.08;;;;;;;;;;4850229;28;36086;-41
2024/01/31 09:30:35;;;;;;;8.07;1.20;;;;;;;;;;5010419;28;20048;-42
2024/01/31 09:33:04;;;;;;;6.65;1.23;;;;;;;;;;5006857;28;20518;-41
2024/01/31 09:35:32;;;;;;;7.87;1.60;;;;;;;;;;5027042;28;20509;-42
2024/01/31 09:38:00;;;;;;;6.63;1.33;;;;;;;;;;5000459;28;20805;-42
2024/01/31 09:40:28;;;;;;;8.35;1.33;;;;;;;;;;5019649;28;20048;-41
2024/01/31 09:42:56;;;;;;;9.88;1.50;;;;;;;;;;5006522;28;20044;-41
2024/01/31 09:45:27;;;;;;;6.03;1.17;;;;;;;;;;5024010;28;20033;-40
2024/01/31 09:47:57;;;;;;;5.33;0.83;;;;;;;;;;4996422;28;20044;-42
2024/01/31 09:50:25;;;;;;;9.90;0.90;;;;;;;;;;5030075;28;20097;-40
2024/01/31 09:52:54;;;;;;;6.82;1.48;;;;;;;;;;5019519;28;20043;-41
2024/01/31 09:55:23;;;;;;;6.05;0.98;;;;;;;;;;5023291;28;20312;-41
2024/01/31 09:57:54;;;;;;;6.70;0.80;;;;;;;;;;5037865;28;20497;-42
2024/01/31 10:00:22;;;;;;;5.40;0.70;;;;;;;;;;5036750;28;20062;-43
2024/01/31 10:02:51;;;;;;;6.57;0.88;;;;;;;;;;5038145;28;20044;-42
2024/01/31 10:05:19;;;;;;;3.90;0.60;;;;;;;;;;5030585;28;20040;-43
2024/01/31 10:07:47;;;;;;;9.68;0.80;;;;;;;;;;5036279;28;20057;-41
2024/01/31 10:10:16;;;;;;;4.57;0.73;;;;;;;;;;5033572;28;20138;-42
2024/01/31 10:12:43;;;;;;;10.03;1.10;;;;;;;;;;5013213;28;20181;-41
2024/01/31 10:15:11;;;;;;;3.20;0.40;;;;;;;;;;5031947;28;20045;-44
2024/01/31 10:17:41;;;;;;;4.68;0.60;;;;;;;;;;5019062;28;20048;-43
2024/01/31 10:20:11;;;;;;;6.88;0.75;;;;;;;;;;5036803;28;20053;-43
2024/01/31 10:22:40;;;;;;;8.10;1.02;;;;;;;;;;5040018;28;20119;-42
2024/01/31 10:25:10;;;;;;;7.30;1.17;;;;;;;;;;5028359;28;20037;-42
2024/01/31 10:27:41;;;;;;;9.23;1.35;;;;;;;;;;4935739;28;20264;-42
2024/01/31 10:30:10;;;;;;;6.38;0.82;;;;;;;;;;4927718;28;20461;-42
2024/01/31 10:32:40;;;;;;;4.90;0.60;;;;;;;;;;5034776;28;20052;-42
2024/01/31 10:35:11;;;;;;;8.60;0.90;;;;;;;;;;5021279;28;20106;-42
2024/01/31 10:38:00;;;;;;;6.50;0.93;;;;;;;;;;5028177;28;20040;-43
2024/01/31 10:40:34;;;;;;;7.55;0.68;;;;;;;;;;5022562;28;20739;-42
2024/01/31 10:43:02;;;;;;;6.10;0.82;;;;;;;;;;5029903;28;20063;-42
2024/01/31 10:45:31;;;;;;;8.88;0.93;;;;;;;;;;5023530;28;20041;-42
2024/01/31 10:47:59;;;;;;;6.47;0.68;;;;;;;;;;5031730;28;20072;-42
2024/01/31 10:50:30;;;;;;;5.60;0.40;;;;;;;;;;5048929;28;20039;-44
2024/01/31 10:52:59;;;;;;;5.60;0.50;;;;;;;;;;5044319;28;20040;-42
2024/01/31 10:55:27;;;;;;;6.13;0.73;;;;;;;;;;5029894;28;20045;-43
2024/01/31 10:57:55;;;;;;;5.22;0.95;;;;;;;;;;5024273;28;20040;-41
2024/01/31 11:00:25;;;;;;;10.48;1.08;;;;;;;;;;5020069;28;20048;-42
2024/01/31 11:02:53;;;;;;;6.40;0.80;;;;;;;;;;5019954;28;20055;-42
2024/01/31 11:05:21;;;;;;;6.38;1.00;;;;;;;;;;4671586;28;10000328;-42
2024/01/31 11:07:51;;;;;;;3.25;0.60;;;;;;;;;;5008387;28;20359;-42
2024/01/31 11:10:20;;;;;;;7.75;1.23;;;;;;;;;;5029899;28;20048;-42
2024/01/31 11:12:58;;;;;;;4.22;0.70;;;;;;;;;;5030044;28;20040;-41
2024/01/31 11:15:29;;;;;;;8.80;1.23;;;;;;;;;;5036767;28;20103;-45
2024/01/31 11:18:05;;;;;;;9.90;1.20;;;;;;;;;;5024965;28;20051;-44
2024/01/31 11:20:35;;;;;;;9.75;1.10;;;;;;;;;;5025729;28;20134;-42
2024/01/31 11:23:03;;;;;;;9.32;1.20;;;;;;;;;;5026632;28;20513;-42
2024/01/31 11:25:33;;;;;;;5.85;0.82;;;;;;;;;;5023376;28;20094;-43
2024/01/31 11:28:01;;;;;;;4.97;0.60;;;;;;;;;;4775621;28;20046;-44
2024/01/31 11:30:30;;;;;;;5.40;0.70;;;;;;;;;;5020613;28;20055;-42
2024/01/31 11:32:59;;;;;;;6.18;0.90;;;;;;;;;;5010451;28;20582;-42
2024/01/31 11:35:28;;;;;;;7.15;0.80;;;;;;;;;;5022463;28;20058;-42
2024/01/31 11:37:56;;;;;;;7.50;1.15;;;;;;;;;;5003464;28;20053;-43
2024/01/31 11:40:26;;;;;;;8.70;1.73;;;;;;;;;;5013971;28;20046;-42
2024/01/31 11:42:56;;;;;;;7.45;0.73;;;;;;;;;;5004275;28;20040;-42
2024/01/31 11:45:25;;;;;;;6.55;1.20;;;;;;;;;;5014535;28;20044;-42
2024/01/31 11:47:54;;;;;;;5.95;0.80;;;;;;;;;;4987897;28;20066;-44
2024/01/31 11:50:22;;;;;;;8.00;1.60;;;;;;;;;;5015954;28;20151;-42
2024/01/31 11:52:50;;;;;;;4.73;0.87;;;;;;;;;;5001514;28;20641;-42
2024/01/31 11:55:23;;;;;;;5.40;0.82;;;;;;;;;;5011836;28;20048;-41
2024/01/31 11:57:52;;;;;;;8.40;1.13;;;;;;;;;;4996667;28;20125;-42
2024/01/31 12:00:21;;;;;;;5.50;1.02;;;;;;;;;;5012368;28;20559;-42
2024/01/31 12:02:49;;;;;;;7.80;2.00;;;;;;;;;;5007037;28;20486;-42
2024/01/31 12:05:18;;;;;;;9.77;1.37;;;;;;;;;;5001522;28;20208;-42
2024/01/31 12:07:55;;;;;;;8.15;1.08;;;;;;;;;;5002202;28;20135;-43
2024/01/31 12:10:47;;;;;;;8.88;1.00;;;;;;;;;;5003628;28;20545;-42
2024/01/31 12:13:17;;;;;;;8.82;0.85;;;;;;;;;;5020718;28;20060;-42
2024/01/31 12:15:46;;;;;;;8.32;1.10;;;;;;;;;;4637288;28;10000467;-41
2024/01/31 12:18:14;;;;;;;6.47;1.13;;;;;;;;;;5001685;28;20055;-40
2024/01/31 12:20:42;;;;;;;5.70;0.80;;;;;;;;;;5002063;28;20505;-41
2024/01/31 12:23:10;;;;;;;4.75;0.60;;;;;;;;;;5032380;28;20038;-40
2024/01/31 12:25:39;;;;;;;13.60;1.23;;;;;;;;;;5011983;28;20044;-41
2024/01/31 12:28:07;;;;;;;6.90;1.10;;;;;;;;;;4801039;28;36961;-42
2024/01/31 12:30:36;;;;;;;5.18;1.45;;;;;;;;;;5004618;28;20080;-41
2024/01/31 12:33:04;;;;;;;8.57;0.97;;;;;;;;;;5005078;28;20801;-41
2024/01/31 12:35:32;;;;;;;4.75;0.75;;;;;;;;;;5017746;28;20048;-41
2024/01/31 12:38:00;;;;;;;5.40;1.05;;;;;;;;;;4989394;28;20775;-41
2024/01/31 12:40:28;;;;;;;7.68;0.90;;;;;;;;;;5005855;28;20415;-41
2024/01/31 12:42:56;;;;;;;6.73;1.00;;;;;;;;;;4654383;28;9999880;-40
2024/01/31 12:45:25;;;;;;;5.00;1.20;;;;;;;;;;5017157;28;20052;-41
2024/01/31 12:47:54;;;;;;;10.43;1.35;;;;;;;;;;4992268;28;20468;-41
2024/01/31 12:50:22;;;;;;;7.20;0.95;;;;;;;;;;5021359;28;20059;-41
2024/01/31 12:52:52;;;;;;;7.03;1.20;;;;;;;;;;5002994;28;20037;-42
2024/01/31 12:55:20;;;;;;;6.82;1.45;;;;;;;;;;5011820;28;20044;-41
2024/01/31 12:57:48;;;;;;;5.90;1.17;;;;;;;;;;4995506;28;21308;-41
2024/01/31 13:00:16;;;;;;;9.60;1.00;;;;;;;;;;5016791;28;20442;-41
2024/01/31 13:02:44;;;;;;;7.10;1.33;;;;;;;;;;5008464;28;20912;-42
2024/01/31 13:05:14;;;;;;;7.77;1.30;;;;;;;;;;5019400;28;20044;-40
2024/01/31 13:07:43;;;;;;;7.13;0.88;;;;;;;;;;5010866;28;20044;-42
2024/01/31 13:10:11;;;;;;;7.80;1.17;;;;;;;;;;5017257;28;20074;-41
2024/01/31 13:12:39;;;;;;;9.57;1.17;;;;;;;;;;5007273;28;20124;-41
2024/01/31 13:15:08;;;;;;;8.65;1.33;;;;;;;;;;5018513;28;20068;-41
2024/01/31 13:17:35;;;;;;;8.10;1.17;;;;;;;;;;5012918;28;20429;-41
2024/01/31 13:20:09;;;;;;;7.53;0.90;;;;;;;;;;5019587;28;20513;-41
2024/01/31 13:22:38;;;;;;;7.07;1.10;;;;;;;;;;5017031;28;21468;-41
2024/01/31 13:25:07;;;;;;;7.43;1.73;;;;;;;;;;5010617;28;20916;-41
2024/01/31 13:27:35;;;;;;;13.77;1.65;;;;;;;;;;4907736;28;20083;-41
2024/01/31 13:30:03;;;;;;;6.40;1.47;;;;;;;;;;4909989;28;20052;-42
2024/01/31 13:32:30;;;;;;;9.98;1.70;;;;;;;;;;5021871;28;20127;-42
2024/01/31 13:34:58;;;;;;;9.32;2.20;;;;;;;;;;5010500;28;20044;-41
2024/01/31 13:37:27;;;;;;;8.75;1.55;;;;;;;;;;5005642;28;20045;-42
2024/01/31 13:39:56;;;;;;;6.40;1.45;;;;;;;;;;5002982;28;20045;-42
2024/01/31 13:42:24;;;;;;;11.70;1.63;;;;;;;;;;5015470;28;20512;-41
2024/01/31 13:44:52;;;;;;;11.20;1.90;;;;;;;;;;5017032;28;20048;-41
2024/01/31 13:47:22;;;;;;;5.75;1.30;;;;;;;;;;5010565;28;20570;-41
2024/01/31 13:49:50;;;;;;;9.93;1.73;;;;;;;;;;5012806;28;20907;-41
2024/01/31 13:52:17;;;;;;;6.15;1.48;;;;;;;;;;5018334;28;20071;-41
2024/01/31 13:54:45;;;;;;;9.23;1.40;;;;;;;;;;5002618;28;20056;-42
2024/01/31 13:57:14;;;;;;;6.45;1.30;;;;;;;;;;5022752;28;20055;-45
2024/01/31 13:59:42;;;;;;;9.32;1.92;;;;;;;;;;5002803;28;20055;-42
2024/01/31 14:02:10;;;;;;;9.10;1.75;;;;;;;;;;5023757;28;20051;-42
2024/01/31 14:04:38;;;;;;;7.85;1.92;;;;;;;;;;5004162;28;20033;-42
2024/01/31 14:07:06;;;;;;;7.67;1.77;;;;;;;;;;5021827;28;20041;-42
2024/01/31 14:09:34;;;;;;;6.82;1.40;;;;;;;;;;4992095;28;20040;-42
2024/01/31 14:12:06;;;;;;;8.55;1.88;;;;;;;;;;5013766;28;20676;-41
2024/01/31 14:14:39;;;;;;;7.75;2.47;;;;;;;;;;5009731;28;20506;-41
2024/01/31 14:17:07;;;;;;;7.03;1.63;;;;;;;;;;5002713;28;20040;-42
2024/01/31 14:19:36;;;;;;;5.23;1.20;;;;;;;;;;5017052;28;20044;-41
2024/01/31 14:22:05;;;;;;;7.80;2.00;;;;;;;;;;5012328;28;20527;-42
2024/01/31 14:24:46;;;;;;;9.65;1.70;;;;;;;;;;5015033;28;20044;-41
2024/01/31 14:27:18;;;;;;;11.82;1.88;;;;;;;;;;4902811;28;20727;-41
2024/01/31 14:29:48;;;;;;;7.18;1.50;;;;;;;;;;4916248;28;20613;-43
2024/01/31 14:32:19;;;;;;;8.83;1.47;;;;;;;;;;5017343;28;21071;-41
2024/01/31 14:34:47;;;;;;;6.05;1.88;;;;;;;;;;5021201;28;20071;-41
2024/01/31 14:37:15;;;;;;;8.85;2.20;;;;;;;;;;5026800;28;20075;-42
2024/01/31 14:39:43;;;;;;;6.32;1.20;;;;;;;;;;5038639;28;20045;-40
2024/01/31 14:42:11;;;;;;;9.90;1.48;;;;;;;;;;5028767;28;20068;-42
2024/01/31 14:44:39;;;;;;;8.90;1.70;;;;;;;;;;4343071;28;10000693;-41
2024/01/31 14:47:08;;;;;;;9.27;1.60;;;;;;;;;;5050970;28;20101;-41
2024/01/31 14:49:36;;;;;;;6.93;1.75;;;;;;;;;;5027957;28;20107;-42